Time;durP1;ratioP1;P1;durP2;ratioP2;P2;SDS_P1;SDS_P2;PMS_P1;PMS_P2;Temp;Humidity;BMP_temperature;BMP_pressure;BME280_temperature;BME280_humidity;BME280_pressure;Samples;Min_cycle;Max_cycle;Signal;HPM_P1;HPM_P2
2021/01/20 00:01:23;;;;;;;9.55;3.10;;;;;;;6.07;76.80;100145.69;5038940;28;20067;-71
2021/01/20 00:03:49;;;;;;;10.93;2.65;;;;;;;6.11;76.01;100143.91;5038169;28;20423;-70
2021/01/20 00:06:15;;;;;;;7.82;2.75;;;;;;;6.11;75.44;100143.91;5037741;28;20049;-70
2021/01/20 00:08:41;;;;;;;8.30;2.58;;;;;;;6.03;75.04;100136.28;5037209;28;20114;-70
2021/01/20 00:11:07;;;;;;;8.27;2.65;;;;;;;6.01;75.29;100125.94;5035670;28;20052;-70
2021/01/20 00:13:34;;;;;;;9.88;2.88;;;;;;;5.95;75.14;100127.69;5036360;28;20056;-70
2021/01/20 00:16:00;;;;;;;9.15;2.60;;;;;;;6.06;74.65;100121.59;5037196;28;20041;-70
2021/01/20 00:18:25;;;;;;;8.32;2.75;;;;;;;6.07;74.24;100118.16;5036011;28;20130;-71
2021/01/20 00:20:51;;;;;;;8.05;3.25;;;;;;;6.08;73.10;100113.81;5037317;28;20053;-70
2021/01/20 00:23:17;;;;;;;8.30;2.35;;;;;;;6.05;74.34;100114.72;5031084;28;20067;-70
2021/01/20 00:25:43;;;;;;;10.63;3.03;;;;;;;6.00;73.17;100120.81;5037412;28;20049;-70
2021/01/20 00:28:10;;;;;;;8.20;2.70;;;;;;;5.99;73.09;100113.88;5038729;28;20159;-70
2021/01/20 00:30:36;;;;;;;12.05;3.17;;;;;;;6.00;73.67;100105.31;5038014;28;20103;-70
2021/01/20 00:33:02;;;;;;;9.80;2.50;;;;;;;6.06;72.34;100097.50;5038438;28;20041;-69
2021/01/20 00:35:28;;;;;;;9.07;3.13;;;;;;;6.00;72.82;100092.41;5038039;28;20041;-69
2021/01/20 00:37:54;;;;;;;8.65;2.72;;;;;;;5.94;72.93;100092.44;5037258;28;20060;-70
2021/01/20 00:40:20;;;;;;;10.40;2.70;;;;;;;6.05;72.97;100081.16;5035167;28;20065;-69
2021/01/20 00:42:46;;;;;;;6.53;2.42;;;;;;;6.06;72.23;100089.75;5037983;28;20064;-69
2021/01/20 00:45:13;;;;;;;11.15;3.35;;;;;;;5.95;72.25;100087.25;5036810;28;20060;-69
2021/01/20 00:47:39;;;;;;;11.38;3.38;;;;;;;5.94;72.37;100085.53;5034861;28;20049;-69
2021/01/20 00:50:07;;;;;;;7.88;3.08;;;;;;;5.90;73.22;100084.72;5036711;28;20056;-69
2021/01/20 00:52:33;;;;;;;6.18;2.80;;;;;;;5.92;72.64;100074.38;5038160;28;20396;-69
2021/01/20 00:54:59;;;;;;;6.35;3.00;;;;;;;5.85;73.01;100077.91;5036381;28;20041;-69
2021/01/20 00:57:24;;;;;;;8.52;3.30;;;;;;;5.88;73.38;100065.81;5037479;28;20124;-69
2021/01/20 00:59:50;;;;;;;10.48;3.65;;;;;;;5.90;72.97;100061.50;5038568;28;20079;-69
2021/01/20 01:02:17;;;;;;;8.02;3.25;;;;;;;5.94;72.80;100061.47;5038381;28;20148;-70
2021/01/20 01:04:43;;;;;;;9.50;3.55;;;;;;;5.89;73.12;100056.34;5038353;28;20136;-70
2021/01/20 01:07:09;;;;;;;8.07;3.50;;;;;;;5.97;73.24;100054.53;5038362;28;20041;-69
2021/01/20 01:09:36;;;;;;;9.82;3.53;;;;;;;5.94;73.16;100043.41;5038364;28;20060;-70
2021/01/20 01:12:02;;;;;;;10.75;3.83;;;;;;;5.90;73.23;100047.72;5038654;28;20106;-69
2021/01/20 01:14:28;;;;;;;8.70;3.63;;;;;;;5.81;73.63;100045.25;5039564;28;20053;-69
2021/01/20 01:16:54;;;;;;;9.77;3.63;;;;;;;5.79;73.44;100047.84;5037798;28;20131;-69
2021/01/20 01:19:21;;;;;;;8.65;4.03;;;;;;;5.79;73.52;100050.44;5038888;28;20052;-69
2021/01/20 01:21:47;;;;;;;7.05;3.20;;;;;;;5.95;73.32;100043.38;5045088;28;20060;-69
2021/01/20 01:24:13;;;;;;;9.35;3.65;;;;;;;5.85;73.50;100044.34;5035900;28;20503;-69
2021/01/20 01:26:39;;;;;;;8.43;3.58;;;;;;;5.78;73.23;100038.41;5038797;28;20041;-69
2021/01/20 01:29:05;;;;;;;11.20;3.90;;;;;;;5.82;73.39;100029.75;5034663;28;20059;-69
2021/01/20 01:31:31;;;;;;;9.02;3.85;;;;;;;5.76;74.01;100032.38;5038033;28;20060;-69
2021/01/20 01:33:57;;;;;;;7.88;3.60;;;;;;;5.81;73.64;100017.72;5036408;28;20063;-69
2021/01/20 01:36:24;;;;;;;9.75;4.03;;;;;;;5.80;73.85;100018.59;5038138;28;20048;-69
2021/01/20 01:38:50;;;;;;;14.40;4.10;;;;;;;5.80;74.38;100018.59;5037354;28;20412;-69
2021/01/20 01:41:16;;;;;;;9.40;4.85;;;;;;;5.83;74.28;100022.84;5038637;28;20111;-69
2021/01/20 01:43:41;;;;;;;9.13;4.15;;;;;;;5.86;73.94;100026.25;5038579;28;20578;-69
2021/01/20 01:46:07;;;;;;;8.10;3.90;;;;;;;5.93;73.72;100016.72;5037394;28;20041;-69
2021/01/20 01:48:33;;;;;;;13.32;3.58;;;;;;;6.05;74.17;100021.78;5038668;28;20052;-70
2021/01/20 01:50:59;;;;;;;9.15;3.78;;;;;;;6.17;73.44;100019.91;5038415;28;20052;-69
2021/01/20 01:53:26;;;;;;;14.18;6.00;;;;;;;6.20;73.31;100015.56;5040883;28;20053;-70
2021/01/20 01:55:52;;;;;;;12.05;3.40;;;;;;;6.15;72.95;100012.16;5040878;28;20037;-69
2021/01/20 01:58:19;;;;;;;9.60;3.60;;;;;;;6.25;73.06;100012.06;5041228;28;20124;-69
2021/01/20 02:00:45;;;;;;;7.50;3.53;;;;;;;6.32;72.43;100022.28;5042606;28;20052;-70
2021/01/20 02:03:11;;;;;;;10.75;3.85;;;;;;;6.27;72.96;100005.16;5040905;28;20132;-69
2021/01/20 02:05:37;;;;;;;7.22;3.28;;;;;;;6.33;73.12;100015.41;5040529;28;20419;-69
2021/01/20 02:08:05;;;;;;;8.18;3.45;;;;;;;6.36;73.12;100008.47;5040080;28;20071;-69
2021/01/20 02:10:33;;;;;;;8.52;3.50;;;;;;;6.43;72.33;100005.78;5040903;28;20049;-69
2021/01/20 02:13:19;;;;;;;9.68;3.85;;;;;;;6.46;72.65;99998.00;5041618;28;20045;-69
2021/01/20 02:15:56;;;;;;;10.80;3.80;;;;;;;6.37;72.43;100001.56;5044760;28;20057;-67
2021/01/20 02:18:26;;;;;;;6.97;3.55;;;;;;;6.29;72.99;100003.41;5044841;28;20052;-69
2021/01/20 02:21:09;;;;;;;9.00;3.85;;;;;;;6.33;72.62;100000.75;5042694;28;20053;-69
2021/01/20 02:23:39;;;;;;;11.45;4.60;;;;;;;6.36;72.15;99994.69;5040144;28;20053;-69
2021/01/20 02:26:13;;;;;;;9.75;3.42;;;;;;;6.44;71.63;99992.84;5038819;28;20037;-69
2021/01/20 02:28:50;;;;;;;8.93;3.50;;;;;;;6.41;72.23;99981.69;5039116;28;20049;-69
2021/01/20 02:31:18;;;;;;;8.15;3.72;;;;;;;6.44;72.19;99976.50;5040632;28;20315;-69
2021/01/20 02:33:46;;;;;;;9.35;3.75;;;;;;;6.40;71.66;99975.69;5039806;28;20135;-68
2021/01/20 02:36:14;;;;;;;8.63;3.30;;;;;;;6.61;71.88;99978.84;5041215;28;20064;-69
2021/01/20 02:38:41;;;;;;;6.32;3.15;;;;;;;6.61;71.35;99971.09;5040531;28;20491;-69
2021/01/20 02:41:07;;;;;;;9.55;3.72;;;;;;;6.67;71.48;99964.09;5040559;28;22066;-69
2021/01/20 02:43:33;;;;;;;7.93;2.92;;;;;;;6.67;71.56;99965.81;5046386;28;20049;-69
2021/01/20 02:45:59;;;;;;;7.00;3.10;;;;;;;6.69;71.17;99966.66;5040220;28;20091;-69
2021/01/20 02:48:26;;;;;;;6.05;3.28;;;;;;;6.78;71.40;99968.25;5042151;28;20056;-70
2021/01/20 02:50:52;;;;;;;6.97;2.90;;;;;;;6.78;71.47;99976.84;5044320;28;20117;-70
2021/01/20 02:53:20;;;;;;;5.97;2.80;;;;;;;6.69;71.51;99972.66;5041721;28;20049;-69
2021/01/20 02:55:49;;;;;;;6.93;3.03;;;;;;;6.76;71.93;99976.00;5039275;28;20048;-70
2021/01/20 02:58:21;;;;;;;7.30;3.50;;;;;;;6.74;71.88;99985.50;5039083;28;20152;-69
2021/01/20 03:00:50;;;;;;;6.18;3.10;;;;;;;6.76;72.00;99988.09;5041114;28;20068;-69
2021/01/20 03:03:16;;;;;;;5.47;2.80;;;;;;;6.83;71.54;99985.41;5037147;28;20160;-70
2021/01/20 03:05:45;;;;;;;6.03;2.72;;;;;;;6.88;72.38;99980.16;5039774;28;20055;-69
2021/01/20 03:08:12;;;;;;;5.35;2.60;;;;;;;6.84;71.95;99984.47;5038536;28;20052;-69
2021/01/20 03:10:38;;;;;;;5.60;2.38;;;;;;;6.87;72.02;99972.41;5038868;28;20071;-69
2021/01/20 03:13:04;;;;;;;8.85;2.55;;;;;;;6.87;72.97;99967.22;5040731;28;20079;-69
2021/01/20 03:15:33;;;;;;;7.22;3.05;;;;;;;6.94;72.29;99974.00;5039699;28;20139;-67
2021/01/20 03:17:59;;;;;;;7.68;2.60;;;;;;;7.03;72.07;99958.34;5039408;28;20060;-68
2021/01/20 03:20:25;;;;;;;6.45;2.85;;;;;;;6.99;72.26;99964.44;5043017;28;20048;-69
2021/01/20 03:22:52;;;;;;;8.55;3.42;;;;;;;7.05;71.58;99959.16;5039481;28;20366;-68
2021/01/20 03:25:18;;;;;;;7.63;2.88;;;;;;;7.08;72.19;99959.13;5041357;28;20404;-69
2021/01/20 03:27:44;;;;;;;4.90;2.25;;;;;;;7.07;72.25;99957.41;5041128;28;20055;-68
2021/01/20 03:30:11;;;;;;;9.80;2.75;;;;;;;6.94;72.32;99956.78;5040517;28;20045;-69
2021/01/20 03:32:37;;;;;;;6.78;2.83;;;;;;;6.93;73.25;99949.03;5040433;28;20417;-69
2021/01/20 03:35:03;;;;;;;4.78;2.10;;;;;;;6.99;72.46;99943.75;5040115;28;20055;-69
2021/01/20 03:37:29;;;;;;;5.43;2.33;;;;;;;7.14;71.60;99946.06;5040447;28;20067;-69
2021/01/20 03:39:56;;;;;;;7.13;2.80;;;;;;;7.13;71.31;99940.94;5038390;28;20103;-69
2021/01/20 03:42:22;;;;;;;6.57;2.08;;;;;;;7.08;71.62;99943.59;5038993;28;20049;-68
2021/01/20 03:44:48;;;;;;;7.07;2.30;;;;;;;7.12;71.28;99931.47;5038237;28;20060;-69
2021/01/20 03:47:14;;;;;;;5.00;2.25;;;;;;;7.24;70.67;99943.31;5041082;28;20053;-69
2021/01/20 03:49:40;;;;;;;5.82;2.45;;;;;;;7.21;70.66;99922.69;5038552;28;20134;-69
2021/01/20 03:52:06;;;;;;;7.40;2.38;;;;;;;7.16;70.97;99928.78;5037907;28;20053;-70
2021/01/20 03:54:32;;;;;;;4.78;2.53;;;;;;;7.02;71.13;99922.16;5039554;28;20163;-70
2021/01/20 03:56:59;;;;;;;6.10;2.90;;;;;;;7.07;71.15;99925.53;5037477;28;20049;-70
2021/01/20 03:59:25;;;;;;;5.43;2.30;;;;;;;7.10;70.93;99913.41;5038951;28;20049;-69
2021/01/20 04:01:51;;;;;;;7.18;2.28;;;;;;;7.09;70.93;99910.81;5038936;28;20049;-69
2021/01/20 04:04:16;;;;;;;5.50;2.33;;;;;;;7.24;70.20;99899.34;5036603;28;20373;-69
2021/01/20 04:06:45;;;;;;;7.88;2.80;;;;;;;7.13;70.65;99908.19;5040924;28;20037;-69
2021/01/20 04:09:10;;;;;;;10.23;2.30;;;;;;;7.24;70.10;99896.75;5042419;28;20394;-69
2021/01/20 04:11:36;;;;;;;6.93;3.30;;;;;;;7.11;70.24;99883.22;5038193;28;20055;-69
2021/01/20 04:14:03;;;;;;;6.63;2.53;;;;;;;7.29;69.78;99887.19;5041505;28;20041;-70
2021/01/20 04:16:29;;;;;;;6.53;2.90;;;;;;;7.25;69.88;99888.13;5038207;28;20123;-69
2021/01/20 04:18:55;;;;;;;6.13;2.55;;;;;;;7.25;69.90;99882.94;5037768;28;20049;-69
2021/01/20 04:21:21;;;;;;;5.45;2.35;;;;;;;7.28;70.08;99869.94;5037522;28;20095;-69
2021/01/20 04:23:47;;;;;;;5.50;2.28;;;;;;;7.36;69.55;99867.22;5038006;28;20103;-69
2021/01/20 04:26:13;;;;;;;5.00;2.45;;;;;;;7.30;69.84;99863.88;5037571;28;20428;-69
2021/01/20 04:28:39;;;;;;;5.93;2.47;;;;;;;7.21;69.97;99864.03;5039127;28;20175;-69
2021/01/20 04:31:05;;;;;;;6.80;2.67;;;;;;;7.25;70.58;99862.25;5038407;28;20053;-69
2021/01/20 04:33:32;;;;;;;7.60;3.05;;;;;;;7.31;70.98;99859.56;5037866;28;21834;-69
2021/01/20 04:35:58;;;;;;;5.60;2.45;;;;;;;7.25;71.15;99863.13;5037904;28;20049;-69
2021/01/20 04:38:24;;;;;;;5.20;2.33;;;;;;;7.25;71.56;99851.91;5070553;22;20479;-69
2021/01/20 04:40:52;;;;;;;4.63;2.13;;;;;;;7.20;72.19;99846.81;5073700;28;20051;-68
2021/01/20 04:43:18;;;;;;;5.80;2.35;;;;;;;7.17;72.25;99836.56;5074822;28;20048;-68
2021/01/20 04:45:44;;;;;;;6.25;2.40;;;;;;;7.26;71.70;99832.91;5077868;28;20071;-67
2021/01/20 04:48:12;;;;;;;6.22;2.65;;;;;;;7.13;71.59;99832.31;5078619;28;20071;-70
2021/01/20 04:50:41;;;;;;;5.10;2.70;;;;;;;7.26;70.86;99828.59;5079234;28;20415;-70
2021/01/20 04:53:10;;;;;;;6.35;2.63;;;;;;;7.22;70.96;99832.13;5077698;28;20223;-68
2021/01/20 04:55:41;;;;;;;6.65;2.53;;;;;;;7.24;71.21;99824.31;5079616;28;20090;-67
2021/01/20 04:58:09;;;;;;;7.35;3.20;;;;;;;7.33;70.12;99824.16;5075642;28;20162;-69
2021/01/20 05:00:35;;;;;;;5.32;2.53;;;;;;;7.28;69.83;99821.69;5078028;28;20067;-69
2021/01/20 05:03:05;;;;;;;8.27;2.72;;;;;;;7.31;69.87;99819.00;5072512;28;20056;-70
2021/01/20 05:05:32;;;;;;;6.60;2.20;;;;;;;7.30;69.95;99813.88;5076299;28;20075;-70
2021/01/20 05:07:59;;;;;;;4.93;2.13;;;;;;;7.35;69.72;99817.19;5070680;28;20434;-68
2021/01/20 05:10:25;;;;;;;7.78;2.47;;;;;;;7.24;69.83;99813.97;5078423;28;20048;-68
2021/01/20 05:12:51;;;;;;;4.78;2.03;;;;;;;7.24;70.17;99816.56;5084825;28;20051;-67
2021/01/20 05:15:17;;;;;;;6.15;2.35;;;;;;;7.25;70.02;99815.69;5080051;28;20048;-67
2021/01/20 05:17:57;;;;;;;7.45;3.05;;;;;;;7.33;69.81;99811.22;5079453;28;20044;-67
2021/01/20 05:20:30;;;;;;;6.18;2.47;;;;;;;7.25;69.32;99807.94;5078284;28;20089;-67
2021/01/20 05:22:58;;;;;;;7.00;2.55;;;;;;;7.31;69.44;99808.66;5080194;28;20051;-69
2021/01/20 05:25:29;;;;;;;6.90;2.47;;;;;;;7.26;70.01;99800.16;5079088;28;20055;-67
2021/01/20 05:27:55;;;;;;;7.03;2.50;;;;;;;7.16;70.29;99807.25;5084299;28;20047;-70
2021/01/20 05:30:22;;;;;;;10.68;2.80;;;;;;;7.07;70.92;99802.25;5083968;28;20521;-67
2021/01/20 05:32:55;;;;;;;6.00;2.53;;;;;;;7.01;70.55;99797.22;5080586;28;20040;-68
2021/01/20 05:35:21;;;;;;;7.68;2.95;;;;;;;6.92;70.27;99800.81;5081614;28;20131;-70
2021/01/20 05:37:48;;;;;;;8.43;3.40;;;;;;;6.83;70.69;99801.00;5077847;28;20047;-67
2021/01/20 05:40:17;;;;;;;8.73;3.20;;;;;;;6.81;70.60;99793.28;5081068;28;20058;-68
2021/01/20 05:42:45;;;;;;;8.25;3.30;;;;;;;6.76;71.18;99802.84;5084636;28;20484;-67
2021/01/20 05:45:12;;;;;;;7.40;3.10;;;;;;;6.78;71.19;99801.09;5082832;28;20708;-67
2021/01/20 05:47:38;;;;;;;7.90;3.25;;;;;;;6.78;70.97;99808.84;5082739;28;20461;-66
2021/01/20 05:50:05;;;;;;;9.80;3.10;;;;;;;6.72;71.64;99800.34;5083640;28;20410;-69
2021/01/20 05:52:31;;;;;;;7.82;2.95;;;;;;;6.75;70.60;99802.88;5081776;28;20052;-66
2021/01/20 05:54:57;;;;;;;8.18;3.55;;;;;;;6.70;71.04;99800.38;5083105;28;20044;-68
2021/01/20 05:57:28;;;;;;;7.40;3.00;;;;;;;6.74;71.62;99796.84;5093290;28;20040;-66
2021/01/20 06:03:16;;;;;;;7.30;2.72;;;;;;;6.79;71.77;99797.63;5073479;28;20043;-67
2021/01/20 06:05:43;;;;;;;8.77;2.83;;;;;;;6.84;71.25;99794.94;5081998;28;20063;-68
2021/01/20 06:08:09;;;;;;;7.95;2.53;;;;;;;6.90;70.98;99791.41;5085794;28;20044;-68
2021/01/20 06:10:36;;;;;;;5.10;2.30;;;;;;;7.00;70.71;99788.59;5081168;28;20094;-68
2021/01/20 06:13:03;;;;;;;5.70;2.67;;;;;;;7.15;69.63;99779.66;5081184;28;20048;-67
2021/01/20 06:15:29;;;;;;;5.07;1.77;;;;;;;7.14;68.98;99775.38;5081749;28;20050;-67
2021/01/20 06:17:56;;;;;;;4.38;1.92;;;;;;;7.26;67.69;99763.94;5081651;28;20048;-68
2021/01/20 06:20:23;;;;;;;4.15;2.13;;;;;;;7.50;67.69;99769.44;5082929;28;20052;-66
2021/01/20 06:22:53;;;;;;;3.80;1.65;;;;;;;7.59;67.10;99765.81;5082325;28;20051;-67
2021/01/20 06:25:25;;;;;;;3.88;1.67;;;;;;;7.83;66.64;99766.16;5082128;28;20508;-67
2021/01/20 06:27:54;;;;;;;4.03;1.67;;;;;;;7.80;65.98;99751.50;5079310;28;20769;-66
2021/01/20 06:30:26;;;;;;;4.18;1.90;;;;;;;7.94;66.39;99754.63;5083070;28;20135;-67
2021/01/20 06:32:53;;;;;;;4.43;1.70;;;;;;;7.93;65.64;99752.94;5081549;28;20052;-68
2021/01/20 06:35:20;;;;;;;5.13;1.83;;;;;;;8.05;65.76;99756.94;5083060;28;20077;-69
2021/01/20 06:37:47;;;;;;;4.10;1.73;;;;;;;8.04;65.88;99752.66;5082279;28;20051;-67
2021/01/20 06:40:40;;;;;;;7.97;2.05;;;;;;;8.01;65.75;99755.34;5078819;28;20052;-69
2021/01/20 06:43:31;;;;;;;3.78;1.40;;;;;;;8.14;65.54;99757.59;5075249;28;20051;-68
2021/01/20 06:46:11;;;;;;;4.25;2.00;;;;;;;8.24;65.72;99753.91;5081932;28;20052;-67
2021/01/20 06:49:05;;;;;;;3.72;1.40;;;;;;;8.23;65.79;99752.22;5081676;28;20047;-67
2021/01/20 06:51:33;;;;;;;4.20;1.70;;;;;;;8.19;65.84;99758.34;5081785;28;20518;-67
2021/01/20 06:54:15;;;;;;;3.05;1.40;;;;;;;8.19;66.17;99753.19;5081285;28;20499;-68
2021/01/20 06:56:46;;;;;;;3.67;1.42;;;;;;;8.27;65.83;99756.41;5081208;28;20043;-69
2021/01/20 06:59:27;;;;;;;4.60;1.42;;;;;;;8.28;66.26;99763.31;5079442;28;20113;-68
2021/01/20 07:02:13;;;;;;;3.20;1.30;;;;;;;8.31;66.72;99757.19;5080488;28;20048;-66
2021/01/20 07:04:55;;;;;;;3.70;1.30;;;;;;;8.36;66.52;99761.34;5079434;28;20062;-68
2021/01/20 07:08:00;;;;;;;6.22;1.60;;;;;;;8.32;66.39;99758.88;5079753;28;20044;-67
2021/01/20 07:10:29;;;;;;;4.13;1.73;;;;;;;8.24;66.57;99756.47;5080108;28;20055;-66
2021/01/20 07:13:20;;;;;;;4.78;1.42;;;;;;;8.35;66.03;99757.06;5077764;28;20044;-68
2021/01/20 07:15:49;;;;;;;4.07;1.38;;;;;;;8.38;66.82;99758.75;5078816;28;20056;-66
2021/01/20 07:18:17;;;;;;;4.57;1.35;;;;;;;8.32;66.89;99751.13;5080235;28;20040;-66
2021/01/20 07:20:44;;;;;;;5.88;1.30;;;;;;;8.32;67.25;99754.56;5081706;28;20049;-66
2021/01/20 07:23:10;;;;;;;4.20;1.40;;;;;;;8.27;67.97;99764.19;5079248;28;20056;-66
2021/01/20 07:25:37;;;;;;;2.85;0.98;;;;;;;8.40;67.53;99752.63;5080660;28;20059;-67
2021/01/20 07:28:03;;;;;;;3.35;1.45;;;;;;;8.36;67.76;99756.19;5081184;28;20055;-65
2021/01/20 07:30:30;;;;;;;2.95;1.38;;;;;;;8.39;68.07;99757.84;5080249;28;20044;-64
2021/01/20 07:32:56;;;;;;;2.50;0.93;;;;;;;8.22;68.16;99759.13;5081094;28;20415;-66
2021/01/20 07:35:26;;;;;;;5.13;1.33;;;;;;;8.25;68.22;99758.19;5080209;28;20629;-67
2021/01/20 07:38:02;;;;;;;2.65;1.00;;;;;;;8.25;68.75;99745.25;5080356;28;20044;-66
2021/01/20 07:40:32;;;;;;;5.10;0.98;;;;;;;8.28;68.02;99750.34;5079891;28;20040;-68
2021/01/20 07:42:58;;;;;;;4.38;1.90;;;;;;;8.43;67.92;99750.84;5081019;28;20049;-65
2021/01/20 07:45:37;;;;;;;4.72;1.55;;;;;;;8.49;67.60;99753.31;5079903;28;20658;-67
2021/01/20 07:48:04;;;;;;;5.95;1.65;;;;;;;8.57;68.32;99747.94;5079264;28;20393;-67
2021/01/20 07:50:39;;;;;;;7.55;2.92;;;;;;;8.63;67.51;99751.22;5086655;28;20052;-66
2021/01/20 07:53:06;;;;;;;8.45;1.90;;;;;;;8.51;68.10;99761.91;5086673;28;20048;-65
2021/01/20 07:55:32;;;;;;;5.03;2.30;;;;;;;8.49;68.53;99750.72;5083562;28;20066;-67
2021/01/20 07:58:00;;;;;;;5.22;1.83;;;;;;;8.44;68.95;99755.97;5090166;28;20040;-66
2021/01/20 08:00:26;;;;;;;7.68;3.63;;;;;;;8.46;69.02;99749.03;5090164;28;20044;-67
2021/01/20 08:02:52;;;;;;;8.57;4.10;;;;;;;8.40;69.83;99759.53;5089113;28;20101;-68
2021/01/20 08:05:18;;;;;;;6.95;3.40;;;;;;;8.40;70.18;99749.16;5087575;28;20048;-66
2021/01/20 08:07:45;;;;;;;6.18;2.22;;;;;;;8.36;70.04;99763.13;5087172;28;20070;-66
2021/01/20 08:10:18;;;;;;;4.50;2.03;;;;;;;8.29;70.05;99762.41;5083519;28;20049;-67
2021/01/20 08:12:44;;;;;;;7.28;3.58;;;;;;;8.22;71.55;99760.88;5079877;28;20144;-67
2021/01/20 08:15:12;;;;;;;8.98;4.60;;;;;;;8.21;71.17;99762.59;5081391;28;20040;-67
2021/01/20 08:17:38;;;;;;;6.03;2.90;;;;;;;8.14;71.29;99755.88;5078819;28;20511;-67
2021/01/20 08:20:05;;;;;;;6.13;2.65;;;;;;;8.12;71.27;99756.81;5079344;28;20545;-66
2021/01/20 08:22:31;;;;;;;7.90;2.70;;;;;;;8.16;71.68;99755.84;5081810;28;20048;-65
2021/01/20 08:24:59;;;;;;;5.22;2.58;;;;;;;8.09;71.35;99765.50;5079145;28;20089;-66
2021/01/20 08:27:26;;;;;;;5.45;2.50;;;;;;;8.08;71.99;99754.28;5078515;28;20040;-66
2021/01/20 08:29:54;;;;;;;5.03;1.70;;;;;;;8.18;71.79;99751.47;5080890;28;20056;-67
2021/01/20 08:32:20;;;;;;;5.90;3.00;;;;;;;8.17;71.54;99754.94;5085386;28;20048;-67
2021/01/20 08:34:47;;;;;;;6.65;2.13;;;;;;;8.16;71.97;99753.25;5086820;28;20058;-64
2021/01/20 08:37:17;;;;;;;8.73;2.10;;;;;;;8.17;71.84;99750.63;5085389;28;20127;-67
2021/01/20 08:39:52;;;;;;;6.32;2.78;;;;;;;8.19;71.92;99748.00;5089594;28;20048;-66
2021/01/20 08:42:26;;;;;;;5.63;2.50;;;;;;;8.27;71.11;99751.22;5075518;28;20442;-65
2021/01/20 08:45:08;;;;;;;4.85;1.90;;;;;;;8.43;71.10;99750.84;5086850;28;20104;-67
2021/01/20 08:47:34;;;;;;;5.72;1.98;;;;;;;8.34;70.99;99757.94;5082554;28;20048;-65
2021/01/20 08:50:01;;;;;;;3.65;1.67;;;;;;;8.37;70.51;99742.34;5089124;28;20047;-67
2021/01/20 08:52:41;;;;;;;6.35;1.83;;;;;;;8.36;70.41;99732.84;5089088;28;20044;-66
2021/01/20 08:55:09;;;;;;;4.22;1.83;;;;;;;8.44;70.13;99732.66;5090303;28;20131;-66
2021/01/20 08:57:35;;;;;;;4.97;1.70;;;;;;;8.28;70.71;99727.03;5088511;28;20043;-66
2021/01/20 09:00:01;;;;;;;6.28;1.83;;;;;;;8.39;70.29;99729.31;5089239;28;20051;-68
2021/01/20 09:02:27;;;;;;;5.05;2.20;;;;;;;8.31;70.53;99726.97;5092687;28;20044;-67
2021/01/20 09:04:53;;;;;;;11.13;2.03;;;;;;;8.44;70.62;99731.78;5094038;28;20052;-66
2021/01/20 09:07:19;;;;;;;6.22;2.50;;;;;;;8.47;70.36;99731.72;5091038;28;20051;-65
2021/01/20 09:09:46;;;;;;;3.75;1.52;;;;;;;8.54;68.91;99728.97;5091724;28;20075;-65
2021/01/20 09:12:12;;;;;;;5.32;1.75;;;;;;;8.62;68.12;99727.91;5092759;28;20149;-65
2021/01/20 09:14:39;;;;;;;3.55;1.70;;;;;;;8.54;67.92;99728.97;5096610;28;20047;-65
2021/01/20 09:17:06;;;;;;;6.78;2.85;;;;;;;8.49;68.34;99735.16;5095368;28;20529;-66
2021/01/20 09:19:32;;;;;;;4.35;1.50;;;;;;;8.45;66.99;99731.78;5090143;28;20105;-65
2021/01/20 09:21:58;;;;;;;4.43;1.40;;;;;;;8.51;67.83;99725.63;5090989;28;20044;-66
2021/01/20 09:24:24;;;;;;;7.50;1.75;;;;;;;8.50;67.52;99722.16;5092752;28;20131;-67
2021/01/20 09:26:50;;;;;;;5.45;1.90;;;;;;;8.49;66.61;99719.63;5084558;28;20067;-65
2021/01/20 09:29:16;;;;;;;4.93;1.50;;;;;;;8.45;66.85;99717.94;5088574;28;20052;-66
2021/01/20 09:31:42;;;;;;;4.35;1.60;;;;;;;8.44;66.14;99717.13;5093749;28;20048;-66
2021/01/20 09:34:08;;;;;;;3.38;1.38;;;;;;;8.45;65.78;99720.53;5093371;28;20089;-66
2021/01/20 09:36:34;;;;;;;4.03;1.45;;;;;;;8.40;65.51;99720.66;5093772;28;20044;-66
2021/01/20 09:39:01;;;;;;;3.90;1.60;;;;;;;8.55;65.59;99709.06;5091632;28;20418;-65
2021/01/20 09:41:27;;;;;;;3.47;1.50;;;;;;;8.53;65.53;99713.47;5091381;28;20422;-65
2021/01/20 09:43:53;;;;;;;3.90;1.30;;;;;;;8.46;65.67;99706.69;5093772;28;20306;-67
2021/01/20 09:46:19;;;;;;;4.72;1.58;;;;;;;8.51;65.31;99705.72;5089388;28;20043;-66
2021/01/20 09:48:46;;;;;;;3.92;1.42;;;;;;;8.50;64.61;99711.78;5086534;28;20048;-66
2021/01/20 09:51:13;;;;;;;3.63;1.40;;;;;;;8.67;64.62;99700.97;5088527;28;20113;-65
2021/01/20 09:53:39;;;;;;;3.55;1.40;;;;;;;8.74;63.31;99704.22;5093291;28;20134;-67
2021/01/20 09:56:05;;;;;;;5.53;1.65;;;;;;;8.73;63.58;99697.34;5090607;28;20412;-66
2021/01/20 09:58:31;;;;;;;6.30;1.80;;;;;;;8.81;62.76;99694.53;5079020;28;20051;-66
2021/01/20 10:00:58;;;;;;;5.75;1.92;;;;;;;8.65;62.75;99689.78;5087036;28;20045;-67
2021/01/20 10:03:24;;;;;;;7.82;2.45;;;;;;;8.59;62.30;99689.09;5089478;28;20116;-66
2021/01/20 10:05:51;;;;;;;4.38;1.73;;;;;;;8.62;62.94;99710.63;5090860;28;20054;-66
2021/01/20 10:08:17;;;;;;;7.35;2.38;;;;;;;8.55;63.88;99701.28;5085257;28;20510;-67
2021/01/20 10:10:43;;;;;;;8.50;2.60;;;;;;;8.50;62.15;99727.34;5089271;28;20044;-66
2021/01/20 10:13:09;;;;;;;7.50;2.40;;;;;;;8.47;63.39;99700.63;5089120;28;20056;-67
2021/01/20 10:15:38;;;;;;;9.85;3.08;;;;;;;8.45;61.45;99687.72;5092831;28;20117;-65
2021/01/20 10:18:04;;;;;;;6.68;2.85;;;;;;;8.51;62.29;99720.44;5087171;28;20518;-66
2021/01/20 10:20:30;;;;;;;11.07;3.78;;;;;;;8.46;61.22;99704.97;5088793;28;20135;-65
2021/01/20 10:22:57;;;;;;;6.38;2.70;;;;;;;8.50;61.94;99722.16;5091259;28;20058;-68
2021/01/20 10:25:29;;;;;;;4.97;2.20;;;;;;;8.47;62.43;99718.75;5092327;28;20059;-65
2021/01/20 10:27:59;;;;;;;5.80;2.33;;;;;;;8.47;62.02;99704.13;5090265;28;20035;-66
2021/01/20 10:30:25;;;;;;;4.80;2.15;;;;;;;8.52;61.43;99696.22;5091250;28;20048;-67
2021/01/20 10:32:51;;;;;;;6.03;2.58;;;;;;;8.51;61.79;99684.16;5092873;28;20383;-67
2021/01/20 10:35:19;;;;;;;6.47;2.10;;;;;;;8.56;60.52;99674.47;5091511;28;20040;-66
2021/01/20 10:37:45;;;;;;;5.90;2.30;;;;;;;8.63;60.19;99663.06;5087802;28;20051;-66
2021/01/20 10:40:13;;;;;;;6.95;2.10;;;;;;;8.72;60.08;99654.16;5090418;28;20518;-68
2021/01/20 10:42:39;;;;;;;5.03;2.05;;;;;;;8.64;59.54;99661.31;5089475;28;20143;-66
2021/01/20 10:45:06;;;;;;;7.15;2.17;;;;;;;8.57;60.82;99665.81;5089156;28;20055;-66
2021/01/20 10:47:33;;;;;;;6.90;2.40;;;;;;;8.69;58.17;99665.47;5091783;28;20047;-67
2021/01/20 10:49:59;;;;;;;6.88;2.10;;;;;;;8.80;58.94;99656.53;5090862;28;20408;-66
2021/01/20 10:52:25;;;;;;;7.97;2.30;;;;;;;8.83;59.04;99659.88;5091167;28;20051;-65
2021/01/20 10:54:51;;;;;;;7.38;2.17;;;;;;;8.80;59.30;99651.34;5084529;28;20044;-66
2021/01/20 10:57:18;;;;;;;5.38;2.50;;;;;;;8.83;58.93;99656.47;5088339;28;20063;-66
2021/01/20 10:59:44;;;;;;;6.85;1.90;;;;;;;8.92;58.21;99650.13;5086749;28;20626;-67
2021/01/20 11:02:10;;;;;;;5.50;2.17;;;;;;;8.98;59.27;99639.59;5089861;28;20048;-65
2021/01/20 11:04:36;;;;;;;6.35;2.25;;;;;;;8.99;58.16;99641.25;5091148;28;20515;-65
2021/01/20 11:07:02;;;;;;;5.10;2.45;;;;;;;9.07;57.41;99638.44;5087847;28;20044;-67
2021/01/20 11:09:30;;;;;;;5.30;2.40;;;;;;;9.14;56.20;99639.94;5087030;28;20052;-67
2021/01/20 11:11:56;;;;;;;7.63;2.40;;;;;;;9.24;56.90;99638.75;5086592;28;20495;-65
2021/01/20 11:14:23;;;;;;;6.35;2.10;;;;;;;9.34;57.01;99629.78;5090132;28;20048;-66
2021/01/20 11:16:51;;;;;;;6.90;2.67;;;;;;;9.42;56.48;99636.50;5081238;28;20047;-66
2021/01/20 11:19:17;;;;;;;5.47;2.55;;;;;;;9.44;56.26;99625.16;5090888;28;20070;-67
2021/01/20 11:21:43;;;;;;;6.13;2.30;;;;;;;9.56;56.19;99639.47;5089064;28;20047;-68
2021/01/20 11:24:09;;;;;;;5.05;2.10;;;;;;;9.58;55.46;99631.66;5087281;28;20105;-66
2021/01/20 11:26:35;;;;;;;9.93;2.15;;;;;;;9.67;55.81;99633.06;5086315;28;20047;-66
2021/01/20 11:29:01;;;;;;;9.23;2.50;;;;;;;9.69;54.94;99626.09;5084029;28;20139;-66
2021/01/20 11:31:28;;;;;;;7.28;2.20;;;;;;;9.63;54.97;99616.75;5088123;28;20039;-66
2021/01/20 11:33:55;;;;;;;6.38;2.00;;;;;;;9.58;55.57;99626.47;5088583;28;20044;-68
2021/01/20 11:36:21;;;;;;;6.38;2.20;;;;;;;9.53;56.42;99616.22;5091312;28;20098;-65
2021/01/20 11:38:47;;;;;;;5.70;2.05;;;;;;;9.46;55.64;99615.59;5086900;28;20403;-67
2021/01/20 11:41:13;;;;;;;4.93;2.10;;;;;;;9.46;56.38;99604.34;5091199;28;20048;-68
2021/01/20 11:43:39;;;;;;;6.85;2.33;;;;;;;9.61;55.19;99608.16;5098989;22;20056;-69
2021/01/20 11:46:05;;;;;;;7.47;2.08;;;;;;;9.76;55.36;99596.41;5056469;28;20123;-66